createdAt,value
2018-09-15T00:00:56.324Z,14.19
2018-09-15T00:01:56.347Z,14.17
2018-09-15T00:02:56.321Z,14.10
2018-09-15T00:03:56.346Z,13.96
2018-09-15T00:04:56.319Z,13.95
2018-09-15T00:05:56.317Z,13.87
2018-09-15T00:06:56.315Z,13.88
2018-09-15T00:07:56.319Z,13.88
2018-09-15T00:08:56.342Z,13.77
2018-09-15T00:09:56.317Z,13.77
2018-09-15T00:10:56.313Z,13.76
2018-09-15T00:11:56.313Z,13.73
2018-09-15T00:12:56.343Z,13.65
2018-09-15T00:13:56.312Z,13.67
2018-09-15T00:14:56.311Z,13.61
2018-09-15T00:15:56.312Z,13.58
2018-09-15T00:16:56.309Z,13.61
2018-09-15T00:17:56.344Z,13.69
2018-09-15T00:18:56.345Z,13.70
2018-09-15T00:19:56.311Z,13.77
2018-09-15T00:20:56.310Z,13.71
2018-09-15T00:21:56.308Z,13.73
2018-09-15T00:22:56.342Z,13.71
2018-09-15T00:23:56.330Z,13.88
2018-09-15T00:24:56.303Z,13.88
2018-09-15T00:25:56.311Z,13.81
2018-09-15T00:26:56.309Z,13.95
2018-09-15T00:27:56.303Z,13.88
2018-09-15T00:28:56.325Z,13.81
2018-09-15T00:29:56.301Z,13.88
2018-09-15T00:30:56.307Z,13.76
2018-09-15T00:31:56.298Z,13.80
2018-09-15T00:32:56.333Z,13.76
2018-09-15T00:33:56.304Z,13.71
2018-09-15T00:34:56.300Z,13.77
2018-09-15T00:35:56.299Z,13.74
2018-09-15T00:36:56.295Z,13.59
2018-09-15T00:37:56.324Z,13.65
2018-09-15T00:38:56.327Z,13.62
2018-09-15T00:39:56.300Z,13.59
2018-09-15T00:40:56.296Z,13.69
2018-09-15T00:41:56.406Z,13.65
2018-09-15T00:42:56.314Z,13.63
2018-09-15T00:43:56.294Z,13.67
2018-09-15T00:44:56.288Z,13.65
2018-09-15T00:45:56.285Z,13.63
2018-09-15T00:46:56.295Z,13.71
2018-09-15T00:47:56.314Z,13.71
2018-09-15T00:48:56.286Z,13.76
2018-09-15T00:49:56.281Z,13.84
2018-09-15T00:50:56.285Z,13.89
2018-09-15T00:51:56.291Z,13.87
2018-09-15T00:52:56.309Z,13.79
2018-09-15T00:53:56.282Z,13.80
2018-09-15T00:54:56.282Z,13.91
2018-09-15T00:55:56.281Z,13.99
2018-09-15T00:56:56.279Z,13.91
2018-09-15T00:57:56.307Z,13.98
2018-09-15T00:58:56.279Z,14.01
2018-09-15T00:59:56.278Z,13.99
2018-09-15T01:00:56.276Z,14.06
2018-09-15T01:01:56.282Z,13.99
2018-09-15T01:02:56.304Z,14.04
2018-09-15T01:03:56.458Z,14.06
2018-09-15T01:04:56.276Z,14.06
2018-09-15T01:05:56.273Z,14.07
2018-09-15T01:06:56.275Z,14.10
2018-09-15T01:07:56.304Z,14.06
2018-09-15T01:08:56.273Z,14.12
2018-09-15T01:09:56.274Z,14.06
2018-09-15T01:10:56.264Z,13.99
2018-09-15T01:11:56.265Z,13.99
2018-09-15T01:12:56.301Z,14.04
2018-09-15T01:13:56.276Z,13.99
2018-09-15T01:14:56.294Z,13.99
2018-09-15T01:15:56.264Z,13.94
2018-09-15T01:16:56.265Z,14.01
2018-09-15T01:17:56.265Z,13.95
2018-09-15T01:18:56.292Z,13.98
2018-09-15T01:19:56.263Z,13.98
2018-09-15T01:20:56.261Z,13.99
2018-09-15T01:21:56.262Z,14.01
2018-09-15T01:22:56.291Z,13.98
2018-09-15T01:23:56.262Z,13.91
2018-09-15T01:24:56.254Z,13.88
2018-09-15T01:25:56.263Z,13.91
2018-09-15T01:26:56.259Z,13.91
2018-09-15T01:27:56.288Z,13.95
2018-09-15T01:28:56.263Z,13.89
2018-09-15T01:29:56.259Z,13.88
2018-09-15T01:30:56.254Z,13.84
2018-09-15T01:31:56.255Z,13.91
2018-09-15T01:32:56.278Z,13.80
2018-09-15T01:33:56.259Z,13.87
2018-09-15T01:34:56.251Z,13.81
2018-09-15T01:35:56.256Z,13.87
2018-09-15T01:36:56.261Z,13.77
2018-09-15T01:37:56.286Z,13.79
2018-09-15T01:38:56.244Z,13.83
2018-09-15T01:39:56.243Z,13.83
2018-09-15T01:40:56.250Z,13.87
2018-09-15T01:41:56.252Z,13.87
2018-09-15T01:42:56.272Z,13.84
2018-09-15T01:43:56.438Z,13.83
2018-09-15T01:44:56.247Z,13.89
2018-09-15T01:45:56.244Z,13.89
2018-09-15T01:46:56.271Z,13.89
2018-09-15T01:47:56.240Z,13.96
2018-09-15T01:48:56.242Z,13.99
2018-09-15T01:49:56.240Z,14.01
2018-09-15T01:50:56.249Z,13.95
2018-09-15T01:51:56.271Z,14.01
2018-09-15T01:52:56.235Z,14.01
2018-09-15T01:53:56.238Z,14.02
2018-09-15T01:54:56.240Z,13.99
2018-09-15T01:55:56.239Z,13.99
2018-09-15T01:56:56.263Z,13.95
2018-09-15T01:57:56.238Z,13.81
2018-09-15T01:58:56.235Z,13.89
2018-09-15T01:59:56.228Z,13.73
2018-09-15T02:00:56.231Z,13.69
2018-09-15T02:01:56.268Z,13.67
2018-09-15T02:02:56.228Z,13.52
2018-09-15T02:03:56.228Z,13.62
2018-09-15T02:04:56.249Z,13.65
2018-09-15T02:05:56.229Z,13.67
2018-09-15T02:06:56.254Z,13.65
2018-09-15T02:07:56.228Z,13.55
2018-09-15T02:08:56.224Z,13.56
2018-09-15T02:09:56.227Z,13.63
2018-09-15T02:10:56.228Z,13.62
2018-09-15T02:11:56.253Z,13.62
2018-09-15T02:12:56.257Z,13.59
2018-09-15T02:13:56.226Z,13.63
2018-09-15T02:14:56.222Z,13.62
2018-09-15T02:15:56.226Z,13.59
2018-09-15T02:16:56.221Z,13.67
2018-09-15T02:17:56.250Z,13.55
2018-09-15T02:18:56.216Z,13.59
2018-09-15T02:19:56.219Z,13.54
2018-09-15T02:20:56.218Z,13.58
2018-09-15T02:21:56.219Z,13.49
2018-09-15T02:22:56.304Z,13.54
2018-09-15T02:23:56.215Z,13.51
2018-09-15T02:24:56.214Z,13.54
2018-09-15T02:25:56.216Z,13.40
2018-09-15T02:26:56.216Z,13.47
2018-09-15T02:27:56.241Z,13.47
2018-09-15T02:28:56.237Z,13.43
2018-09-15T02:29:56.210Z,13.49
2018-09-15T02:30:56.211Z,13.52
2018-09-15T02:31:56.207Z,13.44
2018-09-15T02:32:56.242Z,13.55
2018-09-15T02:33:56.206Z,13.51
2018-09-15T02:34:56.211Z,13.51
2018-09-15T02:35:56.207Z,13.49
2018-09-15T02:36:56.201Z,13.52
2018-09-15T02:37:56.229Z,13.51
2018-09-15T02:38:56.201Z,13.55
2018-09-15T02:39:56.205Z,13.59
2018-09-15T02:40:56.198Z,13.58
2018-09-15T02:41:56.209Z,13.54
2018-09-15T02:42:56.226Z,13.55
2018-09-15T02:43:56.196Z,13.54
2018-09-15T02:44:56.191Z,13.51
2018-09-15T02:45:56.198Z,13.41
2018-09-15T02:46:56.195Z,13.47
2018-09-15T02:47:56.223Z,13.40
2018-09-15T02:48:56.191Z,13.37
2018-09-15T02:49:56.197Z,13.38
2018-09-15T02:50:56.188Z,13.33
2018-09-15T02:51:56.186Z,13.43
2018-09-15T02:52:56.215Z,13.40
2018-09-15T02:53:56.188Z,13.49
2018-09-15T02:54:56.277Z,13.47
2018-09-15T02:55:56.187Z,13.47
2018-09-15T02:56:56.189Z,13.49
2018-09-15T02:57:56.209Z,13.46
2018-09-15T02:58:56.188Z,13.40
2018-09-15T02:59:56.184Z,13.30
2018-09-15T03:00:56.181Z,13.37
2018-09-15T03:01:56.177Z,13.27
2018-09-15T03:02:56.205Z,13.29
2018-09-15T03:03:56.177Z,13.24
2018-09-15T03:04:56.174Z,13.24
2018-09-15T03:05:56.174Z,13.21
2018-09-15T03:06:56.178Z,13.12
2018-09-15T03:07:56.198Z,13.11
2018-09-15T03:08:56.174Z,13.03
2018-09-15T03:09:56.178Z,13.02
2018-09-15T03:10:56.228Z,12.97
2018-09-15T03:11:56.163Z,13.03
2018-09-15T03:12:56.194Z,12.99
2018-09-15T03:13:56.167Z,13.02
2018-09-15T03:14:56.167Z,12.89
2018-09-15T03:15:56.164Z,13.03
2018-09-15T03:16:56.195Z,12.81
2018-09-15T03:17:56.159Z,12.78
2018-09-15T03:18:56.231Z,12.70
2018-09-15T03:19:56.160Z,12.75
2018-09-15T03:20:56.160Z,12.75
2018-09-15T03:21:56.190Z,12.71
2018-09-15T03:22:56.155Z,12.67
2018-09-15T03:23:56.167Z,12.67
2018-09-15T03:24:56.152Z,12.56
2018-09-15T03:25:56.153Z,12.48
2018-09-15T03:26:56.183Z,12.56
2018-09-15T03:27:56.149Z,12.52
2018-09-15T03:28:56.149Z,12.45
2018-09-15T03:29:56.151Z,12.30
2018-09-15T03:30:56.159Z,12.39
2018-09-15T03:31:56.174Z,12.39
2018-09-15T03:32:56.146Z,12.29
2018-09-15T03:33:56.142Z,12.16
2018-09-15T03:34:56.141Z,12.09
2018-09-15T03:35:56.146Z,11.96
2018-09-15T03:36:56.169Z,11.82
2018-09-15T03:37:56.138Z,11.86
2018-09-15T03:38:56.136Z,11.85
2018-09-15T03:39:56.131Z,11.70
2018-09-15T03:40:56.132Z,11.70
2018-09-15T03:41:56.164Z,11.54
2018-09-15T03:42:56.129Z,11.56
2018-09-15T03:43:56.128Z,11.54
2018-09-15T03:44:56.157Z,11.56
2018-09-15T03:45:56.128Z,11.56
2018-09-15T03:46:56.127Z,11.56
2018-09-15T03:47:56.149Z,11.52
2018-09-15T03:48:56.121Z,11.57
2018-09-15T03:49:56.132Z,11.64
2018-09-15T03:50:56.117Z,11.65
2018-09-15T03:51:56.147Z,11.53
2018-09-15T03:52:56.141Z,11.54
2018-09-15T03:53:56.113Z,11.49
2018-09-15T03:54:56.108Z,11.46
2018-09-15T03:55:56.109Z,11.41
2018-09-15T03:56:56.108Z,11.47
2018-09-15T03:57:56.130Z,11.47
2018-09-15T03:58:56.110Z,11.43
2018-09-15T03:59:56.122Z,11.50
2018-09-15T04:00:56.097Z,11.47
2018-09-15T04:01:56.102Z,11.46
2018-09-15T04:02:56.124Z,11.47
2018-09-15T04:03:56.100Z,11.46
2018-09-15T04:04:56.091Z,11.50
2018-09-15T04:05:56.092Z,11.46
2018-09-15T04:06:56.087Z,11.46
2018-09-15T04:07:56.118Z,11.52
2018-09-15T04:08:56.088Z,11.59
2018-09-15T04:09:56.111Z,11.62
2018-09-15T04:10:56.084Z,11.52
2018-09-15T04:11:56.077Z,11.50
2018-09-15T04:12:56.080Z,11.53
2018-09-15T04:13:56.103Z,11.62
2018-09-15T04:14:56.075Z,11.56
2018-09-15T04:15:56.069Z,11.67
2018-09-15T04:16:56.068Z,11.70
2018-09-15T04:17:56.069Z,11.72
2018-09-15T04:18:56.099Z,11.71
2018-09-15T04:19:56.068Z,11.78
2018-09-15T04:20:56.061Z,11.78
2018-09-15T04:21:56.057Z,11.72
2018-09-15T04:22:56.084Z,11.80
2018-09-15T04:23:56.058Z,11.83
2018-09-15T04:24:56.058Z,11.83
2018-09-15T04:25:56.080Z,11.87
2018-09-15T04:26:56.051Z,11.99
2018-09-15T04:27:56.045Z,11.89
2018-09-15T04:28:56.073Z,12.02
2018-09-15T04:29:56.045Z,12.09
2018-09-15T04:30:56.039Z,12.06
2018-09-15T04:31:56.045Z,12.15
2018-09-15T04:32:56.039Z,12.29
2018-09-15T04:33:56.062Z,12.26
2018-09-15T04:34:56.038Z,12.37
2018-09-15T04:35:56.037Z,12.38
2018-09-15T04:36:56.028Z,12.45
2018-09-15T04:37:56.057Z,12.46
2018-09-15T04:38:56.031Z,12.49
2018-09-15T04:39:56.032Z,12.46
2018-09-15T04:40:56.027Z,12.42
2018-09-15T04:41:56.024Z,12.48
2018-09-15T04:42:56.053Z,12.49
2018-09-15T04:43:56.025Z,12.48
2018-09-15T04:44:56.025Z,12.41
2018-09-15T04:45:56.050Z,12.38
2018-09-15T04:46:56.032Z,12.38
2018-09-15T04:47:56.013Z,12.44
2018-09-15T04:48:56.051Z,12.37
2018-09-15T04:49:56.006Z,12.24
2018-09-15T04:50:56.008Z,12.23
2018-09-15T04:51:56.005Z,12.39
2018-09-15T04:52:56.009Z,12.23
2018-09-15T04:53:56.033Z,12.24
2018-09-15T04:54:56.002Z,12.20
2018-09-15T04:55:56.000Z,12.37
2018-09-15T04:56:55.999Z,12.41
2018-09-15T04:57:56.025Z,12.41
2018-09-15T04:58:56.091Z,12.39
2018-09-15T04:59:55.995Z,12.39
2018-09-15T05:00:55.993Z,12.37
2018-09-15T05:01:55.991Z,12.34
2018-09-15T05:02:56.014Z,12.41
2018-09-15T05:03:55.986Z,12.46
2018-09-15T05:04:55.983Z,12.42
2018-09-15T05:05:55.986Z,12.45
2018-09-15T05:06:55.983Z,12.44
2018-09-15T05:07:56.002Z,12.56
2018-09-15T05:08:55.983Z,12.44
2018-09-15T05:09:55.978Z,12.41
2018-09-15T05:10:55.975Z,12.46
2018-09-15T05:11:55.977Z,12.48
2018-09-15T05:12:56.059Z,12.48
2018-09-15T05:13:55.974Z,12.54
2018-09-15T05:14:55.971Z,12.57
2018-09-15T05:15:55.972Z,12.59
2018-09-15T05:16:55.968Z,12.52
2018-09-15T05:17:55.999Z,12.57
2018-09-15T05:18:55.965Z,12.57
2018-09-15T05:19:55.964Z,12.56
2018-09-15T05:20:55.956Z,12.66
2018-09-15T05:21:55.992Z,12.63
2018-09-15T05:22:55.963Z,12.66
2018-09-15T05:23:55.988Z,12.66
2018-09-15T05:24:55.956Z,12.67
2018-09-15T05:25:55.965Z,12.63
2018-09-15T05:26:55.953Z,12.62
2018-09-15T05:27:55.980Z,12.70
2018-09-15T05:28:55.974Z,12.75
2018-09-15T05:29:55.951Z,12.79
2018-09-15T05:30:55.962Z,12.82
2018-09-15T05:31:58.443Z,12.81
2018-09-15T05:33:00.742Z,12.96
2018-09-15T05:33:58.805Z,13.03
2018-09-15T05:35:02.273Z,13.04
2018-09-15T05:35:58.072Z,13.17
2018-09-15T05:36:55.943Z,13.15
2018-09-15T05:37:55.976Z,13.21
2018-09-15T05:39:01.271Z,13.30
2018-09-15T05:40:00.834Z,13.22
2018-09-15T05:40:55.936Z,13.21
2018-09-15T05:41:59.302Z,13.21
2018-09-15T05:43:10.290Z,13.18
2018-09-15T05:44:19.010Z,13.18
2018-09-15T05:44:55.940Z,13.18
2018-09-15T05:45:55.947Z,13.18
2018-09-15T05:46:58.781Z,13.24
2018-09-15T05:47:55.962Z,13.24
2018-09-15T05:49:03.293Z,13.27
2018-09-15T05:50:00.123Z,13.36
2018-09-15T05:50:57.129Z,13.36
2018-09-15T05:51:55.941Z,13.43
2018-09-15T05:52:56.881Z,13.44
2018-09-15T05:53:56.050Z,13.20
2018-09-15T05:54:56.152Z,13.14
2018-09-15T05:56:00.801Z,13.12
2018-09-15T05:56:55.930Z,13.18
2018-09-15T05:57:55.956Z,13.17
2018-09-15T05:58:55.949Z,13.15
2018-09-15T05:59:55.934Z,13.27
2018-09-15T06:00:55.927Z,13.29
2018-09-15T06:01:56.793Z,13.30
2018-09-15T06:02:55.979Z,13.47
2018-09-15T06:03:55.925Z,13.77
2018-09-15T06:04:56.026Z,14.17
2018-09-15T06:05:55.922Z,14.56
2018-09-15T06:06:55.988Z,14.95
2018-09-15T06:07:55.956Z,15.19
2018-09-15T06:08:55.917Z,15.43
2018-09-15T06:09:55.920Z,15.70
2018-09-15T06:10:55.917Z,15.85
2018-09-15T06:11:55.912Z,15.78
2018-09-15T06:12:55.953Z,15.93
2018-09-15T06:13:55.913Z,15.94
2018-09-15T06:14:55.914Z,15.94
2018-09-15T06:15:55.915Z,15.96
2018-09-15T06:16:55.916Z,15.96
2018-09-15T06:17:55.937Z,16.04
2018-09-15T06:18:55.911Z,15.94
2018-09-15T06:19:55.906Z,16.06
2018-09-15T06:20:55.904Z,15.92
2018-09-15T06:21:55.908Z,16.09
2018-09-15T06:22:55.938Z,16.50
2018-09-15T06:23:55.906Z,16.85
2018-09-15T06:24:56.066Z,16.85
2018-09-15T06:25:55.902Z,16.86
2018-09-15T06:27:02.907Z,16.86
2018-09-15T06:27:58.755Z,16.95
2018-09-15T06:29:03.268Z,17.22
2018-09-15T06:29:57.875Z,17.57
2018-09-15T06:30:58.922Z,17.66
2018-09-15T06:31:56.237Z,17.84
2018-09-15T06:34:00.765Z,18.04
2018-09-15T06:34:57.528Z,18.10
2018-09-15T06:35:58.756Z,18.29
2018-09-15T06:36:56.263Z,18.34
2018-09-15T06:38:02.848Z,18.55
2018-09-15T06:39:01.768Z,18.49
2018-09-15T06:39:57.595Z,18.57
2018-09-15T06:40:56.842Z,18.58
2018-09-15T06:41:58.278Z,18.73
2018-09-15T06:42:55.956Z,18.70
2018-09-15T06:43:56.717Z,18.77
2018-09-15T06:45:02.819Z,18.79
2018-09-15T06:46:00.320Z,18.83
2018-09-15T06:46:58.607Z,18.91
2018-09-15T06:47:55.964Z,18.74
2018-09-15T06:48:55.954Z,18.77
2018-09-15T06:49:55.934Z,18.74
2018-09-15T06:50:55.943Z,18.62
2018-09-15T06:51:55.940Z,18.47
2018-09-15T06:52:55.937Z,18.70
2018-09-15T06:53:55.984Z,18.67
2018-09-15T06:54:55.945Z,18.90
2018-09-15T06:55:55.944Z,19.25
2018-09-15T06:56:55.947Z,19.21
2018-09-15T06:57:55.946Z,19.33
2018-09-15T06:58:55.983Z,19.36
2018-09-15T06:59:55.947Z,19.66
2018-09-15T07:00:55.975Z,19.79
2018-09-15T07:01:55.973Z,19.88
2018-09-15T07:02:55.960Z,19.93
2018-09-15T07:03:55.987Z,20.03
2018-09-15T07:04:55.964Z,19.97
2018-09-15T07:05:55.963Z,20.08
2018-09-15T07:06:56.031Z,20.15
2018-09-15T07:07:55.965Z,20.27
2018-09-15T07:08:55.997Z,20.12
2018-09-15T07:09:55.976Z,20.27
2018-09-15T07:10:55.981Z,20.47
2018-09-15T07:11:55.984Z,20.62
2018-09-15T07:12:56.033Z,20.69
2018-09-15T07:13:56.023Z,20.80
2018-09-15T07:14:55.993Z,20.93
2018-09-15T07:15:55.995Z,21.19
2018-09-15T07:16:56.005Z,21.42
2018-09-15T07:17:56.031Z,21.27
2018-09-15T07:18:56.013Z,21.54
2018-09-15T07:19:56.106Z,21.67
2018-09-15T07:20:56.024Z,21.79
2018-09-15T07:21:56.022Z,21.74
2018-09-15T07:22:56.054Z,21.79
2018-09-15T07:23:56.030Z,21.66
2018-09-15T07:24:56.038Z,21.78
2018-09-15T07:25:56.064Z,22.01
2018-09-15T07:26:56.047Z,22.04
2018-09-15T07:27:56.078Z,22.16
2018-09-15T07:28:56.060Z,21.85
2018-09-15T07:29:56.059Z,22.19
2018-09-15T07:30:56.068Z,22.23
2018-09-15T07:31:56.105Z,22.12
2018-09-15T07:32:56.112Z,22.39
2018-09-15T07:33:56.085Z,22.46
2018-09-15T07:34:56.152Z,22.22
2018-09-15T07:35:56.099Z,22.27
2018-09-15T07:36:56.107Z,22.10
2018-09-15T07:37:56.135Z,22.12
2018-09-15T07:38:56.119Z,21.90
2018-09-15T07:39:56.129Z,22.06
2018-09-15T07:40:56.130Z,22.16
2018-09-15T07:41:56.138Z,22.27
2018-09-15T07:42:56.173Z,22.32
2018-09-15T07:43:56.150Z,22.12
2018-09-15T07:44:56.162Z,22.09
2018-09-15T07:45:56.185Z,22.10
2018-09-15T07:46:56.170Z,22.23
2018-09-15T07:47:56.210Z,22.07
2018-09-15T07:48:56.186Z,22.23
2018-09-15T07:49:56.200Z,22.28
2018-09-15T07:50:56.194Z,22.39
2018-09-15T07:51:56.213Z,22.56
2018-09-15T07:52:56.247Z,22.69
2018-09-15T07:53:56.226Z,22.99
2018-09-15T07:54:56.235Z,23.39
2018-09-15T07:55:56.247Z,23.34
2018-09-15T07:56:56.251Z,23.26
2018-09-15T07:57:56.390Z,23.24
2018-09-15T07:58:56.272Z,22.83
2018-09-15T07:59:56.276Z,22.43
2018-09-15T08:00:56.284Z,22.25
2018-09-15T08:01:56.305Z,22.23
2018-09-15T08:02:56.324Z,22.07
2018-09-15T08:03:56.305Z,21.66
2018-09-15T08:04:56.467Z,21.50
2018-09-15T08:05:56.322Z,21.79
2018-09-15T08:06:56.336Z,21.99
2018-09-15T08:07:56.365Z,21.85
2018-09-15T08:08:56.376Z,21.54
2018-09-15T08:09:56.357Z,21.19
2018-09-15T08:10:56.372Z,21.36
2018-09-15T08:11:56.374Z,21.64
2018-09-15T08:12:56.413Z,22.04
2018-09-15T08:13:56.396Z,22.14
2018-09-15T08:14:56.402Z,22.22
2018-09-15T08:15:56.408Z,22.37
2018-09-15T08:16:56.414Z,22.46
2018-09-15T08:17:56.453Z,22.49
2018-09-15T08:18:56.435Z,22.39
2018-09-15T08:19:56.442Z,22.62
2018-09-15T08:20:56.443Z,22.38
2018-09-15T08:21:56.459Z,22.09
2018-09-15T08:22:56.500Z,22.02
2018-09-15T08:23:56.475Z,22.46
2018-09-15T08:24:56.483Z,22.32
2018-09-15T08:25:56.491Z,22.12
2018-09-15T08:26:56.499Z,22.35
2018-09-15T08:27:56.539Z,22.43
2018-09-15T08:28:56.517Z,22.56
2018-09-15T08:29:56.528Z,22.83
2018-09-15T08:30:56.543Z,22.92
2018-09-15T08:31:56.589Z,23.19
2018-09-15T08:32:56.580Z,23.19
2018-09-15T08:33:56.564Z,23.11
2018-09-15T08:34:56.576Z,22.90
2018-09-15T08:35:56.580Z,22.84
2018-09-15T08:36:56.621Z,23.08
2018-09-15T08:37:56.628Z,22.80
2018-09-15T08:38:56.612Z,22.56
2018-09-15T08:39:56.618Z,22.41
2018-09-15T08:40:56.633Z,22.31
2018-09-15T08:41:56.670Z,22.29
2018-09-15T08:42:56.685Z,22.46
2018-09-15T08:43:56.661Z,22.53
2018-09-15T08:44:57.457Z,22.83
2018-09-15T08:45:56.681Z,22.62
2018-09-15T08:46:56.717Z,22.59
2018-09-15T08:47:56.697Z,22.78
2018-09-15T08:48:56.710Z,22.64
2018-09-15T08:49:56.722Z,22.53
2018-09-15T08:50:56.731Z,22.75
2018-09-15T08:51:56.771Z,22.93
2018-09-15T08:52:56.751Z,22.31
2018-09-15T08:53:56.762Z,22.06
2018-09-15T08:54:56.769Z,22.25
2018-09-15T08:55:56.783Z,22.69
2018-09-15T08:56:56.823Z,22.67
2018-09-15T08:57:56.804Z,22.87
2018-09-15T08:58:56.820Z,23.38
2018-09-15T08:59:56.852Z,23.52
2018-09-15T09:00:56.833Z,23.50
2018-09-15T09:01:56.843Z,23.47
2018-09-15T09:02:56.890Z,23.47
2018-09-15T09:03:56.868Z,22.86
2018-09-15T09:04:56.877Z,22.77
2018-09-15T09:05:56.888Z,22.64
2018-09-15T09:06:56.897Z,22.56
2018-09-15T09:07:56.936Z,22.82
2018-09-15T09:08:56.921Z,23.23
2018-09-15T09:09:56.934Z,23.29
2018-09-15T09:10:56.945Z,22.68
2018-09-15T09:11:56.953Z,22.54
2018-09-15T09:12:56.993Z,22.82
2018-09-15T09:13:56.978Z,23.04
2018-09-15T09:14:56.989Z,23.20
2018-09-15T09:15:56.999Z,23.42
2018-09-15T09:16:57.014Z,23.47
2018-09-15T09:17:57.048Z,23.60
2018-09-15T09:18:57.036Z,23.83
2018-09-15T09:19:57.093Z,24.04
2018-09-15T09:20:57.062Z,23.57
2018-09-15T09:21:57.096Z,23.38
2018-09-15T09:22:57.082Z,23.52
2018-09-15T09:23:57.090Z,23.79
2018-09-15T09:24:57.227Z,23.14
2018-09-15T09:25:57.155Z,22.86
2018-09-15T09:26:57.289Z,22.93
2018-09-15T09:27:57.135Z,23.53
2018-09-15T09:28:57.151Z,23.83
2018-09-15T09:29:57.169Z,24.34
2018-09-15T09:30:57.226Z,24.87
2018-09-15T09:31:57.219Z,25.00
2018-09-15T09:32:57.200Z,24.54
2018-09-15T09:33:57.213Z,24.16
2018-09-15T09:34:57.234Z,23.89
2018-09-15T09:35:57.237Z,23.90
2018-09-15T09:36:57.276Z,23.90
2018-09-15T09:37:57.264Z,24.13
2018-09-15T09:38:57.276Z,24.35
2018-09-15T09:39:57.288Z,24.29
2018-09-15T09:40:57.297Z,23.90
2018-09-15T09:41:57.345Z,23.86
2018-09-15T09:42:57.334Z,23.92
2018-09-15T09:43:57.343Z,23.62
2018-09-15T09:44:57.349Z,24.00
2018-09-15T09:45:57.395Z,24.38
2018-09-15T09:46:57.387Z,24.50
2018-09-15T09:47:57.470Z,24.38
2018-09-15T09:48:57.410Z,24.05
2018-09-15T09:49:57.419Z,23.92
2018-09-15T09:50:57.432Z,24.49
2018-09-15T09:51:57.471Z,24.76
2018-09-15T09:52:57.459Z,25.07
2018-09-15T09:53:57.471Z,25.42
2018-09-15T09:54:57.492Z,25.84
2018-09-15T09:55:57.503Z,25.97
2018-09-15T09:56:57.539Z,25.91
2018-09-15T09:57:57.528Z,25.65
2018-09-15T09:58:57.540Z,25.10
2018-09-15T09:59:57.558Z,24.29
2018-09-15T10:00:57.568Z,24.35
2018-09-15T10:01:57.612Z,24.34
2018-09-15T10:02:57.605Z,24.59
2018-09-15T10:03:57.615Z,24.69
2018-09-15T10:04:57.625Z,24.75
2018-09-15T10:05:57.638Z,24.98
2018-09-15T10:06:57.719Z,25.42
2018-09-15T10:07:57.666Z,25.79
2018-09-15T10:08:57.685Z,25.61
2018-09-15T10:09:57.701Z,25.72
2018-09-15T10:10:57.714Z,25.84
2018-09-15T10:11:57.757Z,26.32
2018-09-15T10:12:57.743Z,26.36
2018-09-15T10:13:57.758Z,26.61
2018-09-15T10:14:57.769Z,25.97
2018-09-15T10:15:57.808Z,25.09
2018-09-15T10:16:57.830Z,25.07
2018-09-15T10:17:57.822Z,25.27
2018-09-15T10:18:57.840Z,25.32
2018-09-15T10:19:57.849Z,25.24
2018-09-15T10:20:57.866Z,25.43
2018-09-15T10:21:57.911Z,25.38
2018-09-15T10:22:57.904Z,25.97
2018-09-15T10:23:57.914Z,26.37
2018-09-15T10:24:57.933Z,26.96
2018-09-15T10:25:57.952Z,27.21
2018-09-15T10:26:57.988Z,27.47
2018-09-15T10:27:57.976Z,27.98
2018-09-15T10:28:57.994Z,27.73
2018-09-15T10:29:58.013Z,26.98
2018-09-15T10:30:58.033Z,26.54
2018-09-15T10:31:58.084Z,26.80
2018-09-15T10:32:58.061Z,26.67
2018-09-15T10:33:58.076Z,25.86
2018-09-15T10:34:58.094Z,25.91
2018-09-15T10:35:58.112Z,25.57
2018-09-15T10:36:58.156Z,24.47
2018-09-15T10:37:58.143Z,24.71
2018-09-15T10:38:58.166Z,25.22
2018-09-15T10:39:58.178Z,25.72
2018-09-15T10:40:58.191Z,25.86
2018-09-15T10:41:58.235Z,26.39
2018-09-15T10:42:58.223Z,26.76
2018-09-15T10:43:58.235Z,26.09
2018-09-15T10:44:58.251Z,26.18
2018-09-15T10:45:58.349Z,25.43
2018-09-15T10:46:58.316Z,25.68
2018-09-15T10:47:58.923Z,26.15
2018-09-15T10:48:58.928Z,26.59
2018-09-15T10:49:59.023Z,26.42
2018-09-15T10:50:58.924Z,26.55
2018-09-15T10:51:58.428Z,26.01
2018-09-15T10:52:58.381Z,25.49
2018-09-15T10:53:58.397Z,24.97
2018-09-15T10:54:58.410Z,25.06
2018-09-15T10:55:58.426Z,25.49
2018-09-15T10:56:58.460Z,25.62
2018-09-15T10:57:58.452Z,26.01
2018-09-15T10:59:00.300Z,26.43
2018-09-15T10:59:59.885Z,26.02
2018-09-15T11:00:59.344Z,25.75
2018-09-15T11:02:01.447Z,25.42
2018-09-15T11:03:01.025Z,24.98
2018-09-15T11:04:58.553Z,23.94
2018-09-15T11:05:58.635Z,23.68
2018-09-15T11:06:58.612Z,23.07
2018-09-15T11:07:58.750Z,23.02
2018-09-15T11:08:58.606Z,23.47
2018-09-15T11:09:59.483Z,23.15
2018-09-15T11:10:59.415Z,23.39
2018-09-15T11:11:58.674Z,23.31
2018-09-15T11:12:59.422Z,23.12
2018-09-15T11:13:58.663Z,23.11
2018-09-15T11:14:58.679Z,22.86
2018-09-15T11:15:58.684Z,22.71
2018-09-15T11:16:58.720Z,22.67
2018-09-15T11:17:58.700Z,22.46
2018-09-15T11:18:58.702Z,22.41
2018-09-15T11:19:58.721Z,22.32
2018-09-15T11:20:58.729Z,22.43
2018-09-15T11:21:58.765Z,22.35
2018-09-15T11:22:58.777Z,22.29
2018-09-15T11:24:00.352Z,22.23
2018-09-15T11:25:00.357Z,22.49
2018-09-15T11:25:58.769Z,23.43
2018-09-15T11:26:59.409Z,24.07
2018-09-15T11:28:00.355Z,24.14
2018-09-15T11:29:01.426Z,23.80
2018-09-15T11:29:58.806Z,23.64
2018-09-15T11:30:58.811Z,23.55
2018-09-15T11:31:58.850Z,23.60
2018-09-15T11:32:58.856Z,23.76
2018-09-15T11:33:58.843Z,24.61
2018-09-15T11:34:58.847Z,24.80
2018-09-15T11:35:58.857Z,25.28
2018-09-15T11:36:58.902Z,25.25
2018-09-15T11:37:58.907Z,25.68
2018-09-15T11:38:58.892Z,25.27
2018-09-15T11:39:58.897Z,24.41
2018-09-15T11:40:58.913Z,23.83
2018-09-15T11:41:58.953Z,23.47
2018-09-15T11:42:58.958Z,23.04
2018-09-15T11:43:58.947Z,22.60
2018-09-15T11:44:58.957Z,22.43
2018-09-15T11:45:58.969Z,22.65
2018-09-15T11:46:58.977Z,23.42
2018-09-15T11:47:59.041Z,24.20
2018-09-15T11:48:59.937Z,24.77
2018-09-15T11:49:59.015Z,25.42
2018-09-15T11:50:59.022Z,25.31
2018-09-15T11:51:59.034Z,25.02
2018-09-15T11:52:59.864Z,25.67
2018-09-15T11:53:59.095Z,26.15
2018-09-15T11:54:59.069Z,26.36
2018-09-15T11:55:59.080Z,26.83
2018-09-15T11:56:59.096Z,26.89
2018-09-15T11:57:59.150Z,27.20
2018-09-15T11:58:59.124Z,27.38
2018-09-15T11:59:59.202Z,26.55
2018-09-15T12:00:59.148Z,25.71
2018-09-15T12:01:59.361Z,25.01
2018-09-15T12:02:59.201Z,24.73
2018-09-15T12:03:59.186Z,25.31
2018-09-15T12:04:59.278Z,26.01
2018-09-15T12:05:59.222Z,26.68
2018-09-15T12:06:59.262Z,27.23
2018-09-15T12:07:59.242Z,27.82
2018-09-15T12:08:59.260Z,27.92
2018-09-15T12:09:59.274Z,27.74
2018-09-15T12:10:59.283Z,27.59
2018-09-15T12:12:00.091Z,27.38
2018-09-15T12:12:59.318Z,26.31
2018-09-15T12:13:59.326Z,25.89
2018-09-15T12:15:00.003Z,25.86
2018-09-15T12:15:59.363Z,26.55
2018-09-15T12:16:59.379Z,27.19
2018-09-15T12:17:59.420Z,27.58
2018-09-15T12:18:59.407Z,27.85
2018-09-15T12:19:59.430Z,28.35
2018-09-15T12:20:59.436Z,28.31
2018-09-15T12:21:59.453Z,28.33
2018-09-15T12:22:59.497Z,27.50
2018-09-15T12:23:59.481Z,27.21
2018-09-15T12:24:59.500Z,27.21
2018-09-15T12:25:59.512Z,27.24
2018-09-15T12:26:59.538Z,26.65
2018-09-15T12:27:59.620Z,25.67
2018-09-15T12:28:59.569Z,25.99
2018-09-15T12:29:59.583Z,26.39
2018-09-15T12:30:59.598Z,26.37
2018-09-15T12:31:59.613Z,27.02
2018-09-15T12:32:59.660Z,26.81
2018-09-15T12:33:59.647Z,26.96
2018-09-15T12:34:59.668Z,26.96
2018-09-15T12:35:59.682Z,26.89
2018-09-15T12:36:59.699Z,26.29
2018-09-15T12:37:59.747Z,26.58
2018-09-15T12:38:59.733Z,26.68
2018-09-15T12:39:59.744Z,26.58
2018-09-15T12:40:59.768Z,26.49
2018-09-15T12:41:59.780Z,25.82
2018-09-15T12:42:59.830Z,25.32
2018-09-15T12:43:59.813Z,25.30
2018-09-15T12:44:59.997Z,25.47
2018-09-15T12:45:59.841Z,25.98
2018-09-15T12:46:59.861Z,25.98
2018-09-15T12:47:59.902Z,25.64
2018-09-15T12:49:00.530Z,25.89
2018-09-15T12:49:59.905Z,25.27
2018-09-15T12:50:59.924Z,26.08
2018-09-15T12:52:00.023Z,26.68
2018-09-15T12:52:59.993Z,25.47
2018-09-15T12:53:59.997Z,24.95
2018-09-15T12:54:59.983Z,23.89